Time;durP1;ratioP1;P1;durP2;ratioP2;P2;SDS_P1;SDS_P2;PMS_P1;PMS_P2;Temp;Humidity;BMP_temperature;BMP_pressure;BME280_temperature;BME280_humidity;BME280_pressure;Samples;Min_cycle;Max_cycle;Signal;HPM_P1;HPM_P2
2023/05/12 00:00:21;;;;;;;11.00;2.30;;;;;;;11.55;52.96;100443.70;106625;1274;22526;-55
2023/05/12 00:03:11;;;;;;;9.70;2.60;;;;;;;11.53;52.93;100444.95;106712;1275;22523;-55
2023/05/12 00:05:42;;;;;;;13.10;2.70;;;;;;;11.51;53.04;100445.77;106635;1268;22540;-54
2023/05/12 00:08:13;;;;;;;11.60;2.70;;;;;;;11.50;53.08;100446.94;106545;1274;25396;-56
2023/05/12 00:10:44;;;;;;;8.60;2.50;;;;;;;11.49;53.30;100443.34;106604;1272;25520;-55
2023/05/12 00:13:16;;;;;;;13.30;2.40;;;;;;;11.48;53.33;100445.63;106518;1271;22685;-58
2023/05/12 00:15:47;;;;;;;11.70;2.80;;;;;;;11.47;53.36;100436.55;106615;1261;22745;-55
2023/05/12 00:18:18;;;;;;;9.00;2.20;;;;;;;11.47;53.36;100441.44;106585;1275;23153;-54
2023/05/12 00:20:49;;;;;;;12.30;3.20;;;;;;;11.47;53.40;100438.78;106528;1275;26228;-55
2023/05/12 00:23:19;;;;;;;12.30;3.10;;;;;;;11.45;53.59;100435.70;106550;1274;22521;-57
2023/05/12 00:25:50;;;;;;;9.50;2.90;;;;;;;11.44;53.66;100431.94;106622;1275;22530;-57
2023/05/12 00:28:21;;;;;;;13.00;2.50;;;;;;;11.43;53.49;100429.77;106628;1264;22521;-57
2023/05/12 00:30:53;;;;;;;10.10;2.70;;;;;;;11.41;53.69;100429.69;106702;1275;24374;-54
2023/05/12 00:33:24;;;;;;;14.20;2.70;;;;;;;11.40;53.59;100428.70;106702;1275;22591;-59
2023/05/12 00:35:55;;;;;;;11.50;2.60;;;;;;;11.37;53.69;100432.20;106537;1259;24265;-56
2023/05/12 00:38:26;;;;;;;13.50;3.20;;;;;;;11.35;53.80;100438.83;106598;1275;22781;-56
2023/05/12 00:40:57;;;;;;;12.10;2.80;;;;;;;11.33;53.79;100437.77;106511;1267;25941;-55
2023/05/12 00:43:28;;;;;;;11.20;2.50;;;;;;;11.30;53.91;100437.85;106614;1267;22794;-55
2023/05/12 00:46:00;;;;;;;12.40;3.10;;;;;;;11.27;53.93;100437.67;106602;1270;22558;-56
2023/05/12 00:48:31;;;;;;;11.20;2.50;;;;;;;11.26;54.13;100441.34;106584;1275;22640;-54
2023/05/12 00:51:05;;;;;;;8.70;2.30;;;;;;;11.24;54.14;100439.54;106691;1275;25522;-55
2023/05/12 00:53:35;;;;;;;13.50;2.20;;;;;;;11.21;54.02;100445.30;106554;1267;22514;-57
2023/05/12 00:56:07;;;;;;;14.50;2.90;;;;;;;11.16;54.10;100445.21;106504;1274;22580;-55
2023/05/12 00:58:38;;;;;;;12.10;2.90;;;;;;;11.10;54.23;100445.52;106620;1275;22525;-55
2023/05/12 01:01:09;;;;;;;10.60;2.20;;;;;;;11.08;54.36;100445.41;106539;1273;22507;-56
2023/05/12 01:03:40;;;;;;;12.00;2.80;;;;;;;11.05;54.50;100446.20;106567;1260;24264;-59
2023/05/12 01:06:16;;;;;;;14.00;3.00;;;;;;;11.04;54.50;100448.98;106606;1264;22676;-57
2023/05/12 01:08:47;;;;;;;9.50;2.50;;;;;;;11.00;54.52;100448.76;106662;1270;25284;-59
2023/05/12 01:11:18;;;;;;;11.40;2.80;;;;;;;10.98;54.81;100449.77;106602;1261;23026;-55
2023/05/12 01:13:49;;;;;;;8.60;2.00;;;;;;;10.97;54.79;100455.08;106498;1271;23012;-55
2023/05/12 01:16:23;;;;;;;13.30;2.80;;;;;;;10.94;54.98;100455.85;106539;1275;25390;-55
2023/05/12 01:18:56;;;;;;;9.10;2.50;;;;;;;10.93;54.97;100450.42;106701;1269;22580;-55
2023/05/12 01:21:27;;;;;;;11.20;2.20;;;;;;;10.89;54.84;100453.40;106579;1275;22595;-54
2023/05/12 01:24:02;;;;;;;14.40;2.50;;;;;;;10.85;55.15;100451.44;106594;1275;25521;-55
2023/05/12 01:26:34;;;;;;;8.50;2.40;;;;;;;10.83;55.16;100455.25;106504;1260;25403;-55
2023/05/12 01:29:07;;;;;;;12.00;2.80;;;;;;;10.80;55.26;100452.84;106614;1274;24056;-57
2023/05/12 01:31:38;;;;;;;12.60;2.80;;;;;;;10.76;55.37;100452.86;106668;1275;23319;-56
2023/05/12 01:34:14;;;;;;;10.30;2.90;;;;;;;10.75;55.37;100455.48;106693;1275;22730;-56
2023/05/12 01:36:45;;;;;;;12.90;3.00;;;;;;;10.71;55.43;100454.79;106611;1274;25419;-55
2023/05/12 01:39:15;;;;;;;12.20;3.60;;;;;;;10.70;55.53;100453.59;106569;1275;22521;-54
2023/05/12 01:41:47;;;;;;;12.00;3.00;;;;;;;10.69;55.76;100457.84;106471;1275;22657;-54
2023/05/12 01:44:17;;;;;;;14.90;3.50;;;;;;;10.68;55.62;100456.23;106570;1260;24283;-57
2023/05/12 01:46:48;;;;;;;9.90;2.40;;;;;;;10.66;55.85;100460.65;106522;1275;24790;-57
2023/05/12 01:49:19;;;;;;;10.20;2.90;;;;;;;10.62;55.72;100463.84;106593;1260;22525;-58
2023/05/12 01:51:50;;;;;;;13.80;3.20;;;;;;;10.59;55.85;100461.89;106591;1261;22524;-56
2023/05/12 01:54:21;;;;;;;17.40;3.30;;;;;;;10.55;55.97;100464.95;106587;1275;25348;-57
2023/05/12 01:56:52;;;;;;;13.70;3.00;;;;;;;10.52;56.07;100461.54;106582;1274;22535;-57
2023/05/12 01:59:23;;;;;;;11.10;3.20;;;;;;;10.51;56.16;100461.15;106579;1261;25256;-59
2023/05/12 02:01:54;;;;;;;14.50;2.70;;;;;;;10.48;56.14;100465.57;106542;1274;24409;-57
2023/05/12 02:04:25;;;;;;;10.20;2.80;;;;;;;10.45;56.19;100463.39;106531;1272;22519;-55
2023/05/12 02:06:56;;;;;;;14.50;3.10;;;;;;;10.40;56.44;100469.41;106736;1275;24233;-54
2023/05/12 02:09:27;;;;;;;9.90;2.60;;;;;;;10.36;56.40;100468.78;106553;1275;25401;-58
2023/05/12 02:11:58;;;;;;;8.90;2.40;;;;;;;10.33;56.43;100469.98;106538;1274;25641;-54
2023/05/12 02:14:29;;;;;;;10.40;2.80;;;;;;;10.31;56.67;100470.73;106533;1268;24275;-55
2023/05/12 02:17:00;;;;;;;14.30;3.40;;;;;;;10.30;56.64;100472.27;106628;1261;22533;-56
2023/05/12 02:19:30;;;;;;;10.20;2.20;;;;;;;10.26;56.62;100469.34;106587;1275;22644;-55
2023/05/12 02:22:01;;;;;;;13.10;3.00;;;;;;;10.22;56.74;100471.07;106480;1275;22567;-57
2023/05/12 02:24:32;;;;;;;13.30;2.70;;;;;;;10.20;56.75;100475.64;106571;1254;24251;-56
2023/05/12 02:27:03;;;;;;;11.70;2.70;;;;;;;10.18;56.96;100477.81;106525;1275;22598;-55
2023/05/12 02:29:34;;;;;;;9.50;2.20;;;;;;;10.14;56.95;100478.54;106691;1273;25422;-56
2023/05/12 02:32:07;;;;;;;12.10;3.50;;;;;;;10.09;56.96;100478.76;106588;1267;25487;-55
2023/05/12 02:34:38;;;;;;;12.60;2.50;;;;;;;10.06;57.15;100473.48;106927;1271;24389;-55
2023/05/12 02:37:08;;;;;;;15.40;3.60;;;;;;;10.03;57.14;100480.10;106513;1264;24384;-57
2023/05/12 02:39:40;;;;;;;10.30;2.60;;;;;;;9.98;57.34;100483.59;106491;1267;22520;-55
2023/05/12 02:42:10;;;;;;;13.80;3.10;;;;;;;9.91;57.42;100480.77;106559;1275;25324;-56
2023/05/12 02:44:41;;;;;;;10.30;3.10;;;;;;;9.86;57.54;100483.02;106485;1275;27527;-56
2023/05/12 02:47:12;;;;;;;13.10;2.90;;;;;;;9.81;57.66;100485.59;106490;1267;25468;-55
2023/05/12 02:49:43;;;;;;;11.20;2.80;;;;;;;9.75;57.77;100483.92;106483;1275;22520;-58
2023/05/12 02:52:14;;;;;;;10.10;2.40;;;;;;;9.68;57.94;100484.40;106532;1274;23031;-55
2023/05/12 02:54:44;;;;;;;12.20;3.20;;;;;;;9.64;58.08;100487.29;106612;1271;25429;-58
2023/05/12 02:57:15;;;;;;;12.80;2.90;;;;;;;9.58;58.16;100489.39;106580;1275;25596;-55
2023/05/12 02:59:46;;;;;;;14.90;3.60;;;;;;;9.54;58.34;100489.41;106730;1274;24258;-57
2023/05/12 03:02:17;;;;;;;10.20;2.50;;;;;;;9.49;58.40;100491.94;106540;1274;22639;-56
2023/05/12 03:04:47;;;;;;;10.10;2.90;;;;;;;9.45;58.64;100492.52;106517;1268;22533;-57
2023/05/12 03:07:18;;;;;;;13.00;3.40;;;;;;;9.41;58.73;100494.30;106512;1274;22570;-59
2023/05/12 03:09:49;;;;;;;12.60;3.20;;;;;;;9.38;58.74;100501.35;106567;1267;23180;-58
2023/05/12 03:12:20;;;;;;;14.00;2.80;;;;;;;9.37;58.93;100501.98;106693;1274;24218;-58
2023/05/12 03:14:51;;;;;;;11.10;2.80;;;;;;;9.32;59.00;100498.36;106503;1260;23009;-57
2023/05/12 03:17:22;;;;;;;16.80;2.80;;;;;;;9.29;59.06;100499.13;106536;1274;24279;-56
2023/05/12 03:19:53;;;;;;;10.30;2.60;;;;;;;9.28;59.26;100498.54;106578;1274;25408;-56
2023/05/12 03:22:24;;;;;;;13.10;3.20;;;;;;;9.25;59.21;100496.34;106457;1254;24088;-57
2023/05/12 03:24:55;;;;;;;14.50;3.30;;;;;;;9.23;59.42;100501.39;106604;1274;22580;-56
2023/05/12 03:27:26;;;;;;;14.30;3.50;;;;;;;9.21;59.54;100497.08;106701;1264;24388;-58
2023/05/12 03:29:59;;;;;;;9.10;2.50;;;;;;;9.19;59.69;100502.23;106714;1274;22537;-56
2023/05/12 03:32:30;;;;;;;11.30;3.10;;;;;;;9.20;59.76;100501.05;106650;1268;22499;-57
2023/05/12 03:35:00;;;;;;;11.40;2.50;;;;;;;9.17;59.88;100503.79;106538;1274;25385;-60
2023/05/12 03:37:31;;;;;;;11.20;2.90;;;;;;;9.14;59.88;100505.64;106483;1275;24268;-56
2023/05/12 03:40:02;;;;;;;10.90;2.50;;;;;;;9.15;60.00;100504.59;106546;1268;23027;-56
2023/05/12 03:42:33;;;;;;;9.50;2.10;;;;;;;9.15;60.11;100501.34;106644;1267;22522;-56
2023/05/12 03:45:05;;;;;;;15.10;3.10;;;;;;;9.13;60.16;100502.92;106567;1267;25391;-55
2023/05/12 03:47:39;;;;;;;13.70;3.10;;;;;;;9.11;60.24;100505.02;106790;1271;24839;-57
2023/05/12 03:50:11;;;;;;;9.90;2.50;;;;;;;9.11;60.45;100510.40;106598;1264;25337;-59
2023/05/12 03:52:42;;;;;;;10.10;2.60;;;;;;;9.11;60.44;100514.09;106808;1261;22536;-57
2023/05/12 03:55:13;;;;;;;11.90;2.80;;;;;;;9.10;60.59;100511.00;106553;1257;22592;-60
2023/05/12 03:57:44;;;;;;;9.90;3.00;;;;;;;9.11;60.74;100515.92;106557;1268;24363;-56
2023/05/12 04:00:16;;;;;;;11.50;2.70;;;;;;;9.10;60.62;100517.62;106315;1267;22676;-60
2023/05/12 04:02:47;;;;;;;12.30;3.30;;;;;;;9.12;60.85;100519.14;106872;1259;22529;-57
2023/05/12 04:05:18;;;;;;;10.70;2.80;;;;;;;9.14;60.92;100520.27;106467;1273;22549;-55
2023/05/12 04:07:50;;;;;;;14.70;3.20;;;;;;;9.13;60.93;100517.02;106423;1267;22518;-57
2023/05/12 04:10:21;;;;;;;14.70;3.20;;;;;;;9.11;61.05;100516.77;106574;1272;24349;-58
2023/05/12 04:12:53;;;;;;;13.30;3.50;;;;;;;9.11;61.33;100523.25;106496;1274;22741;-55
2023/05/12 04:15:24;;;;;;;13.50;2.80;;;;;;;9.10;61.46;100524.95;106869;1275;22529;-58
2023/05/12 04:17:55;;;;;;;14.10;3.60;;;;;;;9.08;61.38;100529.63;106473;1264;22647;-55
2023/05/12 04:20:26;;;;;;;13.30;3.70;;;;;;;9.09;61.73;100528.39;106505;1267;25988;-57
2023/05/12 04:22:57;;;;;;;14.80;3.40;;;;;;;9.11;61.84;100532.54;106387;1274;22547;-56
2023/05/12 04:25:28;;;;;;;15.50;3.10;;;;;;;9.12;62.06;100535.91;106402;1274;22520;-54
2023/05/12 04:27:59;;;;;;;12.80;3.50;;;;;;;9.14;61.99;100536.33;106466;1267;22569;-58
2023/05/12 04:30:30;;;;;;;12.10;3.10;;;;;;;9.15;62.14;100534.73;106658;1253;24244;-55
2023/05/12 04:33:01;;;;;;;12.10;2.90;;;;;;;9.18;62.17;100538.21;106524;1261;25495;-57
2023/05/12 04:35:32;;;;;;;15.20;3.60;;;;;;;9.20;62.34;100539.23;106422;1261;22652;-58
2023/05/12 04:38:03;;;;;;;12.60;2.90;;;;;;;9.22;62.47;100543.30;106575;1267;22649;-58
2023/05/12 04:40:34;;;;;;;12.90;3.30;;;;;;;9.23;62.42;100541.66;106347;1257;22550;-54
2023/05/12 04:43:05;;;;;;;12.50;3.10;;;;;;;9.23;62.58;100543.02;106623;1261;24212;-56
2023/05/12 04:45:36;;;;;;;16.60;3.50;;;;;;;9.25;62.60;100539.89;106560;1259;24258;-55
2023/05/12 04:48:08;;;;;;;17.90;2.90;;;;;;;9.28;62.71;100543.83;106564;1268;22560;-58
2023/05/12 04:50:38;;;;;;;12.70;3.40;;;;;;;9.31;62.67;100540.62;106685;1260;25490;-55
2023/05/12 04:53:09;;;;;;;14.40;4.00;;;;;;;9.33;62.90;100545.03;106634;1268;22644;-57
2023/05/12 04:55:40;;;;;;;13.30;3.40;;;;;;;9.36;63.02;100548.88;106481;1271;22531;-55
2023/05/12 04:58:11;;;;;;;12.00;3.00;;;;;;;9.43;63.17;100549.16;106638;1274;24380;-56
2023/05/12 05:00:42;;;;;;;10.10;2.60;;;;;;;9.50;63.39;100552.88;106668;1267;24209;-56
2023/05/12 05:03:13;;;;;;;10.10;3.10;;;;;;;9.58;63.27;100551.52;106874;1267;22618;-57
2023/05/12 05:05:44;;;;;;;12.80;3.30;;;;;;;9.68;63.19;100545.88;106507;1258;24217;-58
2023/05/12 05:08:15;;;;;;;13.60;2.40;;;;;;;9.82;63.21;100544.81;106495;1275;25345;-60
2023/05/12 05:10:46;;;;;;;13.50;3.30;;;;;;;9.95;63.04;100546.38;106684;1267;22553;-56
2023/05/12 05:13:17;;;;;;;11.90;2.90;;;;;;;10.10;62.87;100546.88;106532;1261;22605;-60
2023/05/12 05:15:56;;;;;;;11.50;2.90;;;;;;;10.24;62.89;100546.95;106784;1260;22877;-57
2023/05/12 05:18:27;;;;;;;12.30;3.20;;;;;;;10.36;63.01;100548.64;107055;1275;24272;-57
2023/05/12 05:20:59;;;;;;;15.50;3.20;;;;;;;10.49;62.74;100549.92;106939;1274;22529;-58
2023/05/12 05:23:30;;;;;;;11.10;2.20;;;;;;;10.63;62.45;100552.02;106994;1259;24205;-58
2023/05/12 05:26:01;;;;;;;12.20;2.80;;;;;;;10.79;62.26;100554.05;106943;1259;24257;-58
2023/05/12 05:28:32;;;;;;;12.70;3.30;;;;;;;10.94;61.89;100555.13;106883;1267;22533;-61
2023/05/12 05:31:03;;;;;;;8.50;2.60;;;;;;;11.08;61.88;100549.46;106950;1267;23167;-59
2023/05/12 05:33:34;;;;;;;11.40;3.30;;;;;;;11.22;61.70;100550.00;107075;1268;22552;-63
2023/05/12 05:36:08;;;;;;;11.00;2.80;;;;;;;11.36;61.30;100548.30;107017;1274;25042;-60
2023/05/12 05:38:39;;;;;;;9.80;2.30;;;;;;;11.48;61.14;100547.54;106735;1271;26602;-59
2023/05/12 05:41:10;;;;;;;15.60;3.00;;;;;;;11.60;60.84;100549.77;106617;1267;22547;-59
2023/05/12 05:43:41;;;;;;;16.60;3.10;;;;;;;11.72;60.75;100549.48;106869;1258;22573;-59
2023/05/12 05:46:12;;;;;;;9.90;2.80;;;;;;;11.83;60.59;100551.63;106758;1260;22511;-59
2023/05/12 05:48:43;;;;;;;10.60;2.70;;;;;;;11.93;60.40;100553.89;106686;1267;25349;-57
2023/05/12 05:51:14;;;;;;;10.90;3.10;;;;;;;12.04;60.17;100557.95;106539;1275;22515;-58
2023/05/12 05:53:45;;;;;;;11.50;2.40;;;;;;;12.14;60.02;100561.76;106829;1273;24279;-58
2023/05/12 05:56:16;;;;;;;11.60;3.00;;;;;;;12.24;60.00;100560.84;106665;1270;24681;-60
2023/05/12 05:58:47;;;;;;;11.20;3.20;;;;;;;12.34;59.57;100558.54;110441;1267;22248;-60
2023/05/12 06:01:18;;;;;;;13.20;2.40;;;;;;;12.44;59.54;100563.88;110425;1258;22434;-61
2023/05/12 06:03:49;;;;;;;13.50;3.00;;;;;;;12.54;59.09;100560.84;110416;1266;22281;-63
2023/05/12 06:06:20;;;;;;;10.60;2.60;;;;;;;12.61;58.77;100562.52;110420;1267;22177;-61
2023/05/12 06:08:51;;;;;;;14.10;2.60;;;;;;;12.70;58.49;100566.66;110461;1263;22359;-61
2023/05/12 06:11:21;;;;;;;13.60;2.30;;;;;;;12.78;58.42;100564.02;110431;1267;22192;-59
2023/05/12 06:13:52;;;;;;;11.50;3.00;;;;;;;12.88;58.28;100564.99;110416;1271;22151;-60
2023/05/12 06:16:23;;;;;;;14.30;2.70;;;;;;;12.99;57.99;100565.66;110453;1269;22894;-62
2023/05/12 06:18:54;;;;;;;8.70;2.20;;;;;;;13.07;57.57;100563.20;110439;1267;22499;-60
2023/05/12 06:21:25;;;;;;;9.80;2.50;;;;;;;13.10;57.14;100566.05;110426;1275;22262;-61
2023/05/12 06:23:56;;;;;;;10.40;2.30;;;;;;;13.12;57.33;100565.57;110466;1271;23156;-60
2023/05/12 06:26:27;;;;;;;12.00;2.70;;;;;;;13.20;57.27;100565.88;110456;1267;23110;-59
2023/05/12 06:28:58;;;;;;;14.10;2.50;;;;;;;13.28;57.11;100567.96;110443;1267;23144;-60
2023/05/12 06:31:29;;;;;;;8.80;2.00;;;;;;;13.37;57.09;100570.09;110448;1267;22157;-61
2023/05/12 06:34:01;;;;;;;10.60;2.30;;;;;;;13.46;56.85;100567.70;110451;1260;23311;-62
2023/05/12 06:36:32;;;;;;;8.70;1.90;;;;;;;13.54;56.60;100570.86;110393;1267;22204;-62
2023/05/12 06:39:03;;;;;;;12.00;3.00;;;;;;;13.61;56.28;100573.60;110464;1275;22155;-60
2023/05/12 06:41:34;;;;;;;11.20;2.30;;;;;;;13.69;56.18;100571.95;110400;1267;22227;-62
2023/05/12 06:44:06;;;;;;;16.60;2.90;;;;;;;13.76;56.27;100568.45;110441;1268;22341;-60
2023/05/12 06:46:37;;;;;;;12.80;2.50;;;;;;;13.84;56.23;100569.06;110450;1267;23104;-61
2023/05/12 06:49:08;;;;;;;8.00;2.40;;;;;;;13.93;55.90;100571.86;110432;1268;22226;-60
2023/05/12 06:51:39;;;;;;;7.60;2.00;;;;;;;14.01;55.67;100573.52;110444;1259;23287;-61
2023/05/12 06:54:10;;;;;;;13.30;1.80;;;;;;;14.10;55.53;100569.03;110421;1275;22923;-59
2023/05/12 06:56:41;;;;;;;10.80;2.50;;;;;;;14.19;55.47;100573.05;110444;1263;22199;-61
2023/05/12 06:59:12;;;;;;;9.60;2.30;;;;;;;14.26;55.00;100570.10;110437;1264;22295;-59
2023/05/12 07:01:43;;;;;;;13.10;2.30;;;;;;;14.35;55.27;100571.63;110420;1267;22199;-62
2023/05/12 07:04:14;;;;;;;10.00;2.30;;;;;;;14.44;55.31;100564.47;110443;1269;22836;-61
2023/05/12 07:06:44;;;;;;;8.50;1.90;;;;;;;14.52;54.95;100560.75;110413;1259;22924;-59
2023/05/12 07:09:17;;;;;;;9.90;1.60;;;;;;;14.58;54.59;100559.12;110465;1275;22198;-61
2023/05/12 07:11:49;;;;;;;8.40;1.80;;;;;;;14.68;54.33;100558.84;110432;1271;22342;-60
2023/05/12 07:14:20;;;;;;;10.20;2.00;;;;;;;14.74;53.72;100558.41;110481;1266;22115;-61
2023/05/12 07:16:51;;;;;;;9.80;2.10;;;;;;;14.82;54.27;100557.95;110431;1268;22131;-59
2023/05/12 07:19:21;;;;;;;10.40;2.40;;;;;;;14.90;53.75;100554.69;110482;1271;22213;-59
2023/05/12 07:21:52;;;;;;;9.30;1.90;;;;;;;14.95;53.22;100558.61;110423;1267;22364;-59
2023/05/12 07:24:23;;;;;;;11.40;2.30;;;;;;;15.01;53.32;100554.82;110495;1275;22373;-62
2023/05/12 07:26:55;;;;;;;23.10;5.90;;;;;;;15.11;53.16;100555.28;110437;1268;22181;-60
2023/05/12 07:29:26;;;;;;;54.90;19.50;;;;;;;15.20;53.04;100555.73;110458;1263;22658;-61
2023/05/12 07:31:57;;;;;;;34.70;11.50;;;;;;;15.26;52.57;100551.16;110446;1274;22605;-61
2023/05/12 07:34:28;;;;;;;25.60;6.70;;;;;;;15.33;52.76;100550.54;110473;1268;22263;-61
2023/05/12 07:37:01;;;;;;;11.40;2.20;;;;;;;15.43;52.70;100555.71;110450;1267;22233;-61
2023/05/12 07:39:31;;;;;;;8.10;2.00;;;;;;;15.53;52.43;100554.64;110400;1259;22310;-59
2023/05/12 07:42:02;;;;;;;11.20;1.80;;;;;;;15.62;52.18;100554.52;110468;1269;22144;-60
2023/05/12 07:44:33;;;;;;;15.60;2.50;;;;;;;15.70;52.35;100548.15;110475;1268;22318;-60
2023/05/12 07:47:05;;;;;;;9.30;3.20;;;;;;;15.80;52.38;100555.41;110456;1268;22205;-62
2023/05/12 07:49:35;;;;;;;8.60;1.70;;;;;;;15.92;52.39;100556.41;110456;1268;22178;-60
2023/05/12 07:52:07;;;;;;;14.00;2.80;;;;;;;16.02;51.82;100552.70;110413;1268;22155;-62
2023/05/12 07:54:37;;;;;;;10.80;2.30;;;;;;;16.12;51.69;100555.88;110436;1267;23364;-60
2023/05/12 07:57:08;;;;;;;11.30;2.30;;;;;;;16.17;51.31;100551.79;110433;1271;22667;-63
2023/05/12 07:59:40;;;;;;;7.40;1.80;;;;;;;16.20;51.36;100553.38;110452;1268;22179;-61
2023/05/12 08:02:11;;;;;;;8.20;1.70;;;;;;;16.26;50.88;100557.09;110408;1267;22165;-62
2023/05/12 08:04:42;;;;;;;12.90;2.10;;;;;;;16.29;50.56;100555.34;110462;1271;22346;-61
2023/05/12 08:07:14;;;;;;;12.60;2.00;;;;;;;16.31;50.50;100553.75;110406;1268;22188;-61
2023/05/12 08:09:45;;;;;;;10.60;1.90;;;;;;;16.37;50.63;100555.14;110435;1267;23021;-61
2023/05/12 08:12:16;;;;;;;8.50;1.70;;;;;;;16.43;50.16;100557.90;110428;1275;23070;-62
2023/05/12 08:14:47;;;;;;;7.50;1.70;;;;;;;16.47;49.95;100550.38;110419;1272;22668;-61
2023/05/12 08:17:18;;;;;;;7.40;1.50;;;;;;;16.52;50.05;100552.86;110446;1269;23103;-60
2023/05/12 08:19:48;;;;;;;10.00;2.20;;;;;;;16.59;49.92;100555.17;110455;1270;23035;-61
2023/05/12 08:22:19;;;;;;;8.40;1.80;;;;;;;16.64;49.80;100549.89;110436;1268;23103;-62
2023/05/12 08:24:51;;;;;;;9.00;2.00;;;;;;;16.69;50.02;100546.15;110436;1268;22389;-60
2023/05/12 08:27:22;;;;;;;10.30;1.70;;;;;;;16.76;49.82;100550.19;110476;1263;22260;-61
2023/05/12 08:29:53;;;;;;;9.10;2.20;;;;;;;16.81;49.88;100553.50;110450;1271;22212;-61
2023/05/12 08:32:24;;;;;;;10.10;1.60;;;;;;;16.90;49.67;100557.13;110445;1271;22162;-61
2023/05/12 08:34:55;;;;;;;8.20;1.50;;;;;;;16.99;49.47;100551.77;110463;1268;22210;-62
2023/05/12 08:37:26;;;;;;;9.30;1.70;;;;;;;17.11;49.87;100553.91;110467;1267;22189;-61
2023/05/12 08:39:57;;;;;;;10.20;1.80;;;;;;;17.19;49.11;100556.23;110424;1267;22293;-62
2023/05/12 08:42:38;;;;;;;9.30;1.70;;;;;;;17.28;49.06;100558.67;110428;1275;22281;-61
2023/05/12 08:45:11;;;;;;;5.90;1.60;;;;;;;17.34;48.72;100556.92;110490;1268;23055;-62
2023/05/12 08:47:43;;;;;;;10.20;1.90;;;;;;;17.39;48.63;100555.71;110434;1268;23103;-59
2023/05/12 08:50:17;;;;;;;10.70;2.20;;;;;;;17.43;48.21;100553.45;110448;1267;22914;-61
2023/05/12 08:52:48;;;;;;;5.70;1.30;;;;;;;17.45;47.86;100555.54;110461;1268;23119;-61
2023/05/12 08:55:20;;;;;;;6.40;1.40;;;;;;;17.50;47.67;100555.39;110436;1268;22165;-61
2023/05/12 08:57:51;;;;;;;14.50;1.80;;;;;;;17.58;47.73;100558.23;110435;1262;22416;-61
2023/05/12 09:00:24;;;;;;;13.30;1.80;;;;;;;17.67;48.09;100560.45;110445;1275;22214;-61
2023/05/12 09:02:57;;;;;;;6.10;1.40;;;;;;;17.80;48.32;100555.20;110451;1267;22646;-62
2023/05/12 09:05:29;;;;;;;9.30;1.40;;;;;;;17.90;47.66;100556.95;110452;1267;22134;-62
2023/05/12 09:08:00;;;;;;;11.50;1.70;;;;;;;17.95;47.50;100558.80;110456;1271;22363;-61
2023/05/12 09:10:32;;;;;;;11.00;1.90;;;;;;;18.00;47.36;100552.20;110436;1267;22328;-62
2023/05/12 09:13:08;;;;;;;9.90;1.50;;;;;;;18.04;47.41;100545.45;110394;1268;22831;-61
2023/05/12 09:15:44;;;;;;;6.10;1.40;;;;;;;18.08;47.00;100540.09;110436;1268;23180;-62
2023/05/12 09:18:15;;;;;;;6.90;1.40;;;;;;;18.15;47.21;100543.79;110478;1275;22161;-61
2023/05/12 09:20:46;;;;;;;8.50;1.30;;;;;;;18.26;46.71;100547.00;110436;1270;22197;-59
2023/05/12 09:23:18;;;;;;;5.50;1.40;;;;;;;18.34;46.01;100542.92;110243;1267;22528;-59
2023/05/12 09:26:01;;;;;;;8.00;1.40;;;;;;;18.41;45.53;100544.67;110443;1269;22891;-60
2023/05/12 09:28:38;;;;;;;6.30;1.30;;;;;;;18.45;45.55;100536.44;110481;1268;22505;-59
2023/05/12 09:31:21;;;;;;;9.20;1.70;;;;;;;18.53;45.31;100541.66;110399;1270;22320;-60
2023/05/12 09:33:52;;;;;;;7.80;1.10;;;;;;;18.64;44.78;100540.09;110400;1267;22277;-59
2023/05/12 09:36:25;;;;;;;7.00;1.30;;;;;;;18.71;44.95;100537.51;110438;1275;22229;-60
2023/05/12 09:39:04;;;;;;;7.50;1.40;;;;;;;18.78;45.04;100537.90;110472;1274;22322;-60
2023/05/12 09:41:36;;;;;;;9.50;1.10;;;;;;;18.83;44.30;100541.39;110478;1259;23481;-59
2023/05/12 09:44:09;;;;;;;5.80;1.20;;;;;;;18.89;44.37;100538.21;110420;1268;22479;-61
2023/05/12 09:46:40;;;;;;;7.30;1.20;;;;;;;18.96;44.50;100544.56;110445;1268;22170;-61
2023/05/12 09:49:11;;;;;;;9.10;1.20;;;;;;;19.04;44.33;100535.48;110448;1271;22129;-62
2023/05/12 09:51:43;;;;;;;7.90;1.40;;;;;;;19.10;44.08;100537.19;107917;1267;23565;-60
2023/05/12 09:54:24;;;;;;;8.40;1.50;;;;;;;19.16;44.03;100538.32;110487;1274;23039;-62
2023/05/12 09:56:57;;;;;;;6.70;1.20;;;;;;;19.23;43.75;100535.39;110450;1271;22162;-60
2023/05/12 09:59:33;;;;;;;7.80;1.40;;;;;;;19.31;43.51;100530.73;110454;1267;22169;-60
2023/05/12 10:02:08;;;;;;;6.90;1.10;;;;;;;19.40;43.22;100527.20;110472;1268;22109;-61
2023/05/12 10:04:45;;;;;;;8.30;1.10;;;;;;;19.44;42.50;100527.52;110480;1268;22205;-62
2023/05/12 10:07:20;;;;;;;5.80;1.30;;;;;;;19.43;42.47;100529.55;110398;1262;22185;-60
2023/05/12 10:09:51;;;;;;;6.10;1.20;;;;;;;19.48;42.71;100521.49;110494;1259;22210;-61
2023/05/12 10:12:22;;;;;;;7.20;1.30;;;;;;;19.53;42.36;100522.10;110456;1275;22313;-62
2023/05/12 10:14:54;;;;;;;12.40;1.30;;;;;;;19.59;42.14;100519.80;110472;1268;22099;-61
2023/05/12 10:17:26;;;;;;;11.60;1.30;;;;;;;19.63;42.45;100517.63;110437;1268;22199;-61
2023/05/12 10:19:59;;;;;;;10.00;1.30;;;;;;;19.70;42.55;100511.58;110429;1264;22263;-62
2023/05/12 10:22:31;;;;;;;8.80;1.30;;;;;;;19.80;42.45;100515.29;110452;1267;22572;-61
2023/05/12 10:25:02;;;;;;;7.30;1.10;;;;;;;19.85;41.74;100516.25;110430;1267;22187;-62
2023/05/12 10:27:34;;;;;;;8.10;1.50;;;;;;;19.89;41.86;100515.94;110452;1268;22150;-63
2023/05/12 10:30:07;;;;;;;9.20;1.40;;;;;;;19.93;41.80;100512.63;110502;1275;22214;-60
2023/05/12 10:32:38;;;;;;;3.70;1.00;;;;;;;19.98;41.45;100511.82;110451;1267;22311;-62
2023/05/12 10:35:11;;;;;;;10.10;1.20;;;;;;;20.00;41.37;100512.77;110468;1261;22143;-61
2023/05/12 10:37:44;;;;;;;10.00;1.10;;;;;;;20.05;41.15;100509.23;110447;1267;22359;-61
2023/05/12 10:40:25;;;;;;;11.50;1.40;;;;;;;20.12;41.00;100516.21;110499;1264;23102;-62
2023/05/12 10:43:00;;;;;;;7.50;1.10;;;;;;;20.21;40.97;100511.08;110482;1268;22763;-62
2023/05/12 10:45:37;;;;;;;7.00;1.20;;;;;;;20.24;40.08;100508.32;110490;1268;23116;-62
2023/05/12 10:48:09;;;;;;;4.70;0.90;;;;;;;20.20;40.18;100503.48;110488;1271;22688;-63
2023/05/12 10:50:54;;;;;;;7.60;1.00;;;;;;;20.25;40.46;100503.16;110492;1270;22949;-63
2023/05/12 10:53:32;;;;;;;12.10;1.10;;;;;;;20.36;40.05;100502.55;110470;1255;22180;-62
2023/05/12 10:56:06;;;;;;;9.60;1.00;;;;;;;20.41;39.40;100501.33;110462;1271;22434;-61
2023/05/12 10:58:37;;;;;;;4.00;0.80;;;;;;;20.47;39.94;100504.95;107789;1271;24221;-61
2023/05/12 11:01:08;;;;;;;4.20;0.90;;;;;;;20.54;39.27;100500.34;106532;1260;24195;-60
2023/05/12 11:03:40;;;;;;;5.30;1.00;;;;;;;20.57;39.00;100502.99;110489;1267;22286;-62
2023/05/12 11:06:19;;;;;;;5.30;1.10;;;;;;;20.64;38.61;100505.11;110495;1275;22278;-62
2023/05/12 11:08:51;;;;;;;7.20;1.10;;;;;;;20.69;38.17;100502.13;110470;1268;22197;-61
2023/05/12 11:11:22;;;;;;;7.00;1.10;;;;;;;20.72;38.71;100497.91;110450;1268;22933;-62
2023/05/12 11:13:54;;;;;;;4.40;1.20;;;;;;;20.76;38.50;100503.49;108081;1268;25653;-61
2023/05/12 11:16:24;;;;;;;6.60;0.90;;;;;;;20.80;38.17;100503.79;106698;1274;22711;-61
2023/05/12 11:19:04;;;;;;;6.80;1.30;;;;;;;20.81;37.98;100502.48;106787;1268;24004;-60
2023/05/12 11:21:36;;;;;;;7.20;1.20;;;;;;;20.80;38.16;100500.13;110445;1267;24926;-62
2023/05/12 11:24:09;;;;;;;11.80;1.10;;;;;;;20.83;38.20;100491.35;110486;1274;22279;-62
2023/05/12 11:26:41;;;;;;;6.00;1.00;;;;;;;20.86;37.84;100502.33;110487;1268;22722;-62
2023/05/12 11:29:12;;;;;;;10.00;1.30;;;;;;;20.89;37.80;100498.59;110450;1270;22256;-62
2023/05/12 11:31:46;;;;;;;5.70;0.90;;;;;;;20.92;37.64;100501.39;110463;1268;22417;-61
2023/05/12 11:34:21;;;;;;;6.30;1.20;;;;;;;20.90;37.33;100506.89;110444;1261;22204;-61